createdAt,value
2023-05-18T00:00:06.909Z,10.02
2023-05-18T00:02:34.343Z,10.01
2023-05-18T00:05:02.437Z,10.00
2023-05-18T00:07:34.402Z,9.98
2023-05-18T00:10:01.990Z,9.96
2023-05-18T00:12:29.202Z,9.94
2023-05-18T00:14:56.240Z,9.93
2023-05-18T00:17:23.815Z,9.95
2023-05-18T00:19:50.949Z,9.94
2023-05-18T00:22:20.862Z,9.92
2023-05-18T00:24:48.224Z,9.90
2023-05-18T00:27:15.467Z,9.87
2023-05-18T00:29:42.537Z,9.85
2023-05-18T00:32:09.682Z,9.84
2023-05-18T00:34:37.464Z,9.82
2023-05-18T00:37:04.781Z,9.79
2023-05-18T00:39:31.833Z,9.77
2023-05-18T00:41:58.890Z,9.74
2023-05-18T00:44:26.141Z,9.71
2023-05-18T00:46:53.196Z,9.67
2023-05-18T00:49:20.324Z,9.63
2023-05-18T00:51:47.420Z,9.58
2023-05-18T00:54:14.328Z,9.54
2023-05-18T00:56:46.888Z,9.51
2023-05-18T00:59:14.042Z,9.46
2023-05-18T01:01:43.999Z,9.42
2023-05-18T01:04:14.581Z,9.38
2023-05-18T01:06:42.449Z,9.34
2023-05-18T01:09:11.891Z,9.30
2023-05-18T01:12:00.405Z,9.25
2023-05-18T01:14:50.077Z,9.22
2023-05-18T01:17:33.729Z,9.19
2023-05-18T01:20:21.698Z,9.14
2023-05-18T01:22:50.916Z,9.07
2023-05-18T01:25:42.985Z,9.03
2023-05-18T01:28:16.428Z,9.01
2023-05-18T01:30:43.846Z,9.00
2023-05-18T01:33:11.780Z,8.99
2023-05-18T01:35:42.026Z,8.96
2023-05-18T01:38:09.076Z,8.95
2023-05-18T01:40:41.334Z,8.96
2023-05-18T01:43:11.893Z,8.97
2023-05-18T01:45:40.555Z,9.00
2023-05-18T01:48:07.805Z,9.04
2023-05-18T01:50:39.886Z,9.05
2023-05-18T01:53:15.312Z,9.00
2023-05-18T01:55:42.361Z,8.95
2023-05-18T01:58:09.466Z,8.93
2023-05-18T02:00:36.859Z,8.91
2023-05-18T02:03:05.410Z,8.88
2023-05-18T02:05:32.908Z,8.84
2023-05-18T02:08:00.091Z,8.81
2023-05-18T02:10:27.611Z,8.77
2023-05-18T02:12:54.783Z,8.75
2023-05-18T02:15:22.515Z,8.75
2023-05-18T02:17:50.221Z,8.74
2023-05-18T02:20:18.626Z,8.73
2023-05-18T02:22:46.472Z,8.73
2023-05-18T02:25:13.568Z,8.74
2023-05-18T02:27:40.654Z,8.76
2023-05-18T02:30:09.111Z,8.79
2023-05-18T02:32:39.263Z,8.84
2023-05-18T02:35:07.387Z,8.87
2023-05-18T02:37:40.190Z,8.89
2023-05-18T02:40:10.894Z,8.93
2023-05-18T02:42:37.961Z,8.99
2023-05-18T02:45:05.610Z,9.03
2023-05-18T02:47:33.137Z,9.07
2023-05-18T02:50:00.340Z,9.11
2023-05-18T02:52:28.086Z,9.17
2023-05-18T02:54:56.487Z,9.24
2023-05-18T02:57:47.167Z,9.31
2023-05-18T03:00:17.848Z,9.38
2023-05-18T03:02:48.725Z,9.44
2023-05-18T03:05:17.109Z,9.52
2023-05-18T03:07:51.103Z,9.59
2023-05-18T03:10:20.114Z,9.68
2023-05-18T03:12:48.182Z,9.76
2023-05-18T03:15:16.870Z,9.86
2023-05-18T03:17:44.473Z,9.93
2023-05-18T03:20:14.805Z,10.01
2023-05-18T03:22:42.020Z,10.10
2023-05-18T03:25:09.155Z,10.18
2023-05-18T03:27:38.138Z,10.26
2023-05-18T03:30:06.160Z,10.35
2023-05-18T03:32:34.292Z,10.42
2023-05-18T03:35:02.151Z,10.52
2023-05-18T03:37:29.555Z,10.63
2023-05-18T03:40:01.077Z,10.74
2023-05-18T03:42:28.314Z,10.86
2023-05-18T03:44:56.790Z,10.99
2023-05-18T03:47:24.960Z,11.18
2023-05-18T03:49:52.009Z,11.41
2023-05-18T03:52:22.764Z,11.72
2023-05-18T03:54:50.232Z,12.08
2023-05-18T03:57:17.555Z,12.44
2023-05-18T03:59:45.746Z,12.81
2023-05-18T04:02:13.486Z,13.19
2023-05-18T04:04:42.276Z,13.59
2023-05-18T04:07:09.427Z,13.97
2023-05-18T04:09:36.610Z,14.32
2023-05-18T04:12:04.832Z,14.65
2023-05-18T04:14:35.319Z,14.95
2023-05-18T04:17:06.633Z,15.29
2023-05-18T04:19:34.479Z,15.60
2023-05-18T04:22:05.040Z,15.85
2023-05-18T04:24:33.086Z,16.11
2023-05-18T04:27:01.876Z,16.36
2023-05-18T04:29:29.600Z,16.59
2023-05-18T04:32:03.392Z,16.81
2023-05-18T04:34:31.529Z,17.01
2023-05-18T04:36:59.091Z,17.20
2023-05-18T04:39:27.654Z,17.44
2023-05-18T04:42:01.259Z,17.71
2023-05-18T04:44:29.035Z,17.85
2023-05-18T04:46:59.442Z,17.92
2023-05-18T04:49:28.410Z,18.02
2023-05-18T04:51:56.414Z,18.19
2023-05-18T04:54:24.414Z,18.46
2023-05-18T04:56:51.929Z,18.66
2023-05-18T04:59:19.294Z,18.91
2023-05-18T05:01:47.020Z,19.13
2023-05-18T05:04:14.401Z,19.35
2023-05-18T05:06:41.594Z,19.56
2023-05-18T05:09:08.699Z,19.79
2023-05-18T05:11:35.774Z,20.08
2023-05-18T05:14:03.340Z,20.30
2023-05-18T05:16:31.212Z,20.32
2023-05-18T05:18:58.572Z,20.37
2023-05-18T05:21:25.973Z,20.61
2023-05-18T05:23:52.887Z,20.82
2023-05-18T05:26:20.401Z,20.84
2023-05-18T05:28:48.047Z,20.92
2023-05-18T05:31:15.937Z,20.98
2023-05-18T05:33:45.508Z,21.03
2023-05-18T05:36:13.681Z,21.17
2023-05-18T05:38:41.378Z,21.25
2023-05-18T05:41:08.714Z,21.42
2023-05-18T05:43:36.059Z,21.58
2023-05-18T05:46:03.116Z,21.67
2023-05-18T05:48:30.670Z,21.78
2023-05-18T05:50:58.022Z,21.91
2023-05-18T05:53:25.140Z,21.99
2023-05-18T05:55:53.024Z,22.08
2023-05-18T05:58:21.109Z,22.15
2023-05-18T06:00:54.904Z,22.15
2023-05-18T06:03:22.813Z,22.19
2023-05-18T06:05:50.328Z,22.21
2023-05-18T06:08:19.730Z,22.21
2023-05-18T06:10:48.015Z,22.13
2023-05-18T06:13:16.075Z,22.13
2023-05-18T06:15:48.269Z,22.25
2023-05-18T06:18:15.440Z,22.42
2023-05-18T06:20:42.649Z,22.51
2023-05-18T06:23:10.311Z,22.53
2023-05-18T06:25:56.198Z,22.65
2023-05-18T06:28:31.944Z,22.64
2023-05-18T06:31:21.977Z,22.59
2023-05-18T06:33:59.943Z,22.62
2023-05-18T06:36:27.091Z,22.72
2023-05-18T06:38:54.339Z,22.81
2023-05-18T06:41:22.505Z,22.97
2023-05-18T06:43:50.888Z,23.14
2023-05-18T06:46:38.518Z,23.21
2023-05-18T06:49:12.738Z,23.33
2023-05-18T06:51:40.192Z,23.47
2023-05-18T06:54:07.557Z,23.54
2023-05-18T06:56:34.925Z,23.56
2023-05-18T06:59:01.944Z,23.62
2023-05-18T07:01:29.682Z,23.79
2023-05-18T07:03:59.760Z,24.05
2023-05-18T07:06:26.874Z,24.20
2023-05-18T07:08:53.922Z,24.28
2023-05-18T07:11:21.274Z,24.33
2023-05-18T07:13:48.328Z,24.38
2023-05-18T07:16:15.629Z,24.47
2023-05-18T07:18:42.838Z,24.60
2023-05-18T07:21:10.071Z,24.71
2023-05-18T07:23:37.324Z,24.81
2023-05-18T07:26:04.475Z,25.00
2023-05-18T07:28:31.644Z,25.26
2023-05-18T07:30:58.779Z,25.44
2023-05-18T07:33:25.918Z,25.57
2023-05-18T07:35:52.893Z,25.59
2023-05-18T07:38:20.526Z,25.65
2023-05-18T07:40:47.571Z,25.82
2023-05-18T07:43:14.820Z,25.96
2023-05-18T07:45:41.986Z,26.04
2023-05-18T07:48:09.102Z,26.02
2023-05-18T07:50:36.332Z,26.11
2023-05-18T07:53:03.301Z,26.20
2023-05-18T07:55:30.651Z,26.22
2023-05-18T07:58:01.208Z,26.20
2023-05-18T08:00:28.344Z,26.20
2023-05-18T08:02:55.864Z,26.25
2023-05-18T08:05:23.569Z,26.34
2023-05-18T08:07:50.729Z,26.45
2023-05-18T08:10:17.868Z,26.65
2023-05-18T08:12:44.912Z,26.78
2023-05-18T08:16:54.085Z,26.48
2023-05-18T08:19:21.342Z,26.40
2023-05-18T08:21:48.763Z,26.58
2023-05-18T08:24:15.914Z,26.82
2023-05-18T08:26:43.089Z,26.97
2023-05-18T08:29:10.517Z,27.12
2023-05-18T08:31:38.520Z,27.33
2023-05-18T08:34:06.344Z,27.48
2023-05-18T08:36:34.447Z,27.50
2023-05-18T08:39:03.101Z,27.53
2023-05-18T08:41:31.310Z,27.58
2023-05-18T08:44:14.374Z,27.66
2023-05-18T08:46:42.835Z,27.62
2023-05-18T08:49:11.064Z,27.50
2023-05-18T08:51:38.325Z,27.09
2023-05-18T08:54:06.521Z,26.90
2023-05-18T08:56:34.754Z,26.98
2023-05-18T08:59:05.207Z,27.01
2023-05-18T09:01:33.004Z,26.92
2023-05-18T09:04:02.850Z,26.97
2023-05-18T09:06:29.906Z,27.01
2023-05-18T09:08:59.924Z,27.08
2023-05-18T09:11:28.201Z,27.34
2023-05-18T09:13:55.668Z,27.70
2023-05-18T09:16:22.813Z,27.98
2023-05-18T09:18:50.093Z,28.15
2023-05-18T09:21:17.202Z,28.21
2023-05-18T09:23:44.348Z,28.26
2023-05-18T09:26:12.906Z,28.19
2023-05-18T09:28:43.662Z,28.04
2023-05-18T09:31:14.131Z,27.84
2023-05-18T09:33:41.762Z,27.60
2023-05-18T09:36:09.623Z,27.47
2023-05-18T09:38:38.378Z,27.64
2023-05-18T09:41:10.470Z,27.86
2023-05-18T09:43:37.373Z,28.22
2023-05-18T09:46:08.462Z,28.35
2023-05-18T09:48:36.989Z,28.20
2023-05-18T09:51:07.326Z,27.92
2023-05-18T09:53:38.261Z,27.57
2023-05-18T09:56:12.200Z,27.24
2023-05-18T09:58:39.969Z,27.00
2023-05-18T10:01:07.152Z,26.93
2023-05-18T10:03:37.965Z,27.14
2023-05-18T10:06:06.901Z,27.68
2023-05-18T10:08:35.012Z,28.07
2023-05-18T10:11:02.211Z,27.99
2023-05-18T10:13:31.746Z,27.82
2023-05-18T10:16:06.048Z,27.62
2023-05-18T10:18:35.729Z,27.45
2023-05-18T10:21:04.582Z,27.23
2023-05-18T10:23:32.956Z,27.13
2023-05-18T10:26:00.142Z,27.28
2023-05-18T10:28:47.625Z,27.32
2023-05-18T10:31:16.139Z,27.12
2023-05-18T10:33:43.264Z,26.84
2023-05-18T10:36:11.141Z,26.59
2023-05-18T10:38:43.686Z,26.41
2023-05-18T10:41:10.751Z,26.30
2023-05-18T10:43:37.900Z,26.21
2023-05-18T10:46:05.739Z,25.97
2023-05-18T10:48:32.839Z,25.77
2023-05-18T10:50:59.823Z,25.58
2023-05-18T10:53:30.113Z,25.49
2023-05-18T10:55:57.235Z,25.46
2023-05-18T10:58:25.882Z,25.47
2023-05-18T11:01:01.792Z,25.47
2023-05-18T11:03:29.069Z,25.49
2023-05-18T11:06:06.964Z,25.54
2023-05-18T11:08:34.303Z,25.64
2023-05-18T11:11:03.369Z,25.71
2023-05-18T11:13:31.744Z,25.79
2023-05-18T11:15:59.681Z,25.90
2023-05-18T11:18:46.100Z,26.15
2023-05-18T11:21:25.760Z,26.73
2023-05-18T11:24:24.251Z,27.55
2023-05-18T11:26:56.074Z,28.21
2023-05-18T11:29:23.360Z,28.47
2023-05-18T11:31:54.807Z,28.43
2023-05-18T11:34:45.316Z,28.28
2023-05-18T11:37:14.404Z,28.03
2023-05-18T11:39:51.669Z,27.83
2023-05-18T11:42:25.504Z,27.67
2023-05-18T11:44:54.321Z,27.38
2023-05-18T11:47:21.414Z,27.10
2023-05-18T11:49:49.590Z,26.88
2023-05-18T11:52:20.220Z,26.72
2023-05-18T11:54:57.616Z,26.62
2023-05-18T11:57:26.546Z,26.54
2023-05-18T11:59:57.793Z,26.48
2023-05-18T12:02:26.907Z,26.49
2023-05-18T12:05:07.237Z,26.49
2023-05-18T12:07:35.780Z,26.50
2023-05-18T12:10:13.375Z,26.56
2023-05-18T12:12:41.238Z,26.61
2023-05-18T12:15:09.756Z,26.63
2023-05-18T12:17:44.198Z,26.62
2023-05-18T12:20:19.247Z,26.74
2023-05-18T12:22:50.447Z,27.00
2023-05-18T12:25:17.503Z,27.38
2023-05-18T12:27:45.429Z,27.78
2023-05-18T12:30:15.858Z,28.15
2023-05-18T12:32:53.697Z,28.42
2023-05-18T12:35:24.800Z,28.65
2023-05-18T12:37:51.992Z,28.86
2023-05-18T12:40:19.973Z,28.98
2023-05-18T12:43:00.380Z,29.13
2023-05-18T12:45:28.511Z,29.19
2023-05-18T12:47:56.524Z,29.18
2023-05-18T12:50:26.673Z,29.28
2023-05-18T12:52:55.058Z,29.42
2023-05-18T12:55:22.636Z,29.37
2023-05-18T12:58:04.362Z,29.23
2023-05-18T13:00:35.408Z,29.41
2023-05-18T13:03:13.628Z,29.57
2023-05-18T13:05:44.319Z,29.78
2023-05-18T13:08:16.486Z,30.03
2023-05-18T13:10:44.375Z,29.99
2023-05-18T13:13:16.382Z,29.98
2023-05-18T13:15:43.854Z,30.01
2023-05-18T13:18:12.193Z,29.97
2023-05-18T13:20:42.335Z,29.95
2023-05-18T13:23:14.352Z,29.96
2023-05-18T13:25:42.440Z,30.12
2023-05-18T13:28:12.552Z,30.42
2023-05-18T13:30:40.420Z,30.76
2023-05-18T13:33:08.878Z,30.95
2023-05-18T13:35:42.095Z,31.01
2023-05-18T13:38:13.577Z,31.00
2023-05-18T13:40:41.191Z,30.87
2023-05-18T13:43:10.889Z,30.81
2023-05-18T13:45:39.978Z,30.86
2023-05-18T13:48:10.152Z,31.02
2023-05-18T13:50:38.224Z,31.14
2023-05-18T13:53:05.345Z,31.32
2023-05-18T13:55:33.682Z,31.36
2023-05-18T13:58:01.575Z,31.11
2023-05-18T14:00:28.733Z,30.63
2023-05-18T14:02:56.899Z,30.38
2023-05-18T14:05:24.584Z,30.19
2023-05-18T14:07:54.709Z,30.08
2023-05-18T14:10:21.890Z,30.10
2023-05-18T14:12:49.285Z,30.22
2023-05-18T14:15:16.440Z,30.29
2023-05-18T14:17:44.568Z,30.26
2023-05-18T14:20:12.278Z,30.07
2023-05-18T14:22:39.400Z,30.02
2023-05-18T14:25:07.102Z,30.07
2023-05-18T14:27:34.392Z,30.01
2023-05-18T14:30:01.679Z,30.21
2023-05-18T14:32:28.641Z,30.61
2023-05-18T14:34:58.155Z,30.85
2023-05-18T14:37:25.706Z,30.88
2023-05-18T14:39:52.838Z,30.68
2023-05-18T14:42:20.049Z,30.54
2023-05-18T14:44:47.312Z,30.52
2023-05-18T14:47:14.541Z,30.49
2023-05-18T14:49:41.647Z,30.49
2023-05-18T14:52:08.581Z,30.47
2023-05-18T14:54:36.881Z,30.36
2023-05-18T14:57:04.652Z,30.32
2023-05-18T14:59:31.773Z,29.91
2023-05-18T15:01:58.943Z,29.30
2023-05-18T15:04:26.173Z,28.59
2023-05-18T15:06:53.338Z,27.99
2023-05-18T15:09:20.775Z,27.43
2023-05-18T15:11:47.714Z,26.98
2023-05-18T15:14:14.863Z,26.69
2023-05-18T15:16:42.554Z,26.46
2023-05-18T15:19:09.794Z,26.23
2023-05-18T15:21:36.838Z,26.10
2023-05-18T15:24:03.974Z,26.13
2023-05-18T15:26:31.120Z,26.14
2023-05-18T15:28:58.171Z,26.12
2023-05-18T15:31:25.343Z,26.25
2023-05-18T15:33:52.480Z,26.55
2023-05-18T15:36:21.398Z,26.88
2023-05-18T15:38:48.513Z,27.24
2023-05-18T15:41:15.561Z,27.55
2023-05-18T15:43:43.792Z,27.76
2023-05-18T15:46:11.137Z,27.94
2023-05-18T15:48:38.351Z,28.18
2023-05-18T15:51:05.996Z,28.49
2023-05-18T15:53:34.068Z,28.73
2023-05-18T15:56:02.364Z,28.84
2023-05-18T15:58:30.404Z,28.88
2023-05-18T16:00:57.612Z,28.93
2023-05-18T16:03:24.886Z,29.11
2023-05-18T16:05:52.000Z,29.24
2023-05-18T16:08:20.659Z,29.24
2023-05-18T16:10:48.207Z,29.17
2023-05-18T16:13:15.760Z,29.06
2023-05-18T16:15:43.022Z,28.84
2023-05-18T16:18:10.755Z,28.59
2023-05-18T16:20:38.641Z,28.41
2023-05-18T16:23:05.833Z,28.15
2023-05-18T16:25:32.970Z,27.69
2023-05-18T16:28:00.112Z,27.14
2023-05-18T16:30:27.349Z,26.60
2023-05-18T16:32:54.532Z,26.16
2023-05-18T16:35:21.787Z,25.82
2023-05-18T16:37:48.888Z,25.61
2023-05-18T16:40:16.134Z,25.51
2023-05-18T16:42:47.438Z,25.45
2023-05-18T16:45:15.084Z,25.30
2023-05-18T16:47:42.344Z,25.14
2023-05-18T16:50:10.370Z,25.00
2023-05-18T16:52:37.407Z,24.83
2023-05-18T16:55:04.973Z,24.61
2023-05-18T16:57:33.975Z,24.36
2023-05-18T17:00:02.774Z,24.09
2023-05-18T17:02:30.325Z,23.77
2023-05-18T17:04:59.218Z,23.41
2023-05-18T17:07:26.343Z,23.08
2023-05-18T17:09:53.292Z,22.75
2023-05-18T17:12:20.636Z,22.42
2023-05-18T17:14:50.603Z,22.08
2023-05-18T17:17:19.248Z,21.77
2023-05-18T17:19:46.222Z,21.46
2023-05-18T17:22:13.215Z,21.13
2023-05-18T17:24:40.279Z,20.83
2023-05-18T17:27:07.281Z,20.57
2023-05-18T17:29:34.468Z,20.31
2023-05-18T17:32:01.852Z,20.07
2023-05-18T17:34:30.661Z,19.84
2023-05-18T17:36:58.767Z,19.61
2023-05-18T17:39:26.753Z,19.41
2023-05-18T17:41:54.494Z,19.19
2023-05-18T17:44:21.873Z,18.98
2023-05-18T17:46:49.221Z,18.77
2023-05-18T17:49:16.273Z,18.56
2023-05-18T17:51:43.570Z,18.39
2023-05-18T17:54:10.979Z,18.23
2023-05-18T17:56:38.229Z,18.06
2023-05-18T17:59:05.897Z,17.90
2023-05-18T18:01:33.665Z,17.75
2023-05-18T18:04:01.217Z,17.64
2023-05-18T18:06:28.264Z,17.51
2023-05-18T18:09:00.217Z,17.41
2023-05-18T18:11:27.779Z,17.29
2023-05-18T18:13:54.932Z,17.18
2023-05-18T18:16:22.475Z,17.09
2023-05-18T18:18:50.830Z,17.01
2023-05-18T18:21:18.133Z,16.93
2023-05-18T18:23:45.147Z,16.90
2023-05-18T18:26:12.207Z,16.87
2023-05-18T18:28:39.254Z,16.80
2023-05-18T18:31:06.252Z,16.71
2023-05-18T18:33:33.679Z,16.58
2023-05-18T18:36:00.946Z,16.45
2023-05-18T18:38:29.068Z,16.33
2023-05-18T18:41:04.452Z,16.21
2023-05-18T18:43:31.987Z,16.11
2023-05-18T18:45:59.549Z,16.04
2023-05-18T18:48:26.984Z,15.96
2023-05-18T18:50:54.245Z,15.91
2023-05-18T18:53:21.529Z,15.86
2023-05-18T18:55:48.760Z,15.79
2023-05-18T18:58:16.310Z,15.73
2023-05-18T19:00:43.364Z,15.66
2023-05-18T19:03:10.752Z,15.61
2023-05-18T19:05:38.393Z,15.55
2023-05-18T19:08:06.035Z,15.50
2023-05-18T19:10:34.613Z,15.45
2023-05-18T19:13:05.957Z,15.37
2023-05-18T19:15:34.105Z,15.29
2023-05-18T19:18:01.497Z,15.18
2023-05-18T19:20:28.841Z,15.08
2023-05-18T19:22:56.139Z,14.98
2023-05-18T19:25:26.585Z,14.89
2023-05-18T19:27:54.246Z,14.78
2023-05-18T19:30:33.933Z,14.68
2023-05-18T19:33:01.488Z,14.59
2023-05-18T19:35:29.230Z,14.51
2023-05-18T19:37:56.544Z,14.42
2023-05-18T19:40:27.346Z,14.33
2023-05-18T19:42:56.501Z,14.26
2023-05-18T19:45:24.311Z,14.16
2023-05-18T19:47:53.635Z,14.08
2023-05-18T19:50:21.410Z,14.03
2023-05-18T19:52:50.357Z,13.98
2023-05-18T19:55:18.049Z,13.93
2023-05-18T19:57:45.201Z,13.87
2023-05-18T20:00:12.965Z,13.81
2023-05-18T20:02:40.492Z,13.78
2023-05-18T20:05:08.598Z,13.81
2023-05-18T20:07:36.109Z,13.81
2023-05-18T20:10:03.307Z,13.82
2023-05-18T20:12:32.186Z,13.84
2023-05-18T20:14:59.954Z,13.83
2023-05-18T20:17:27.364Z,13.82
2023-05-18T20:19:54.557Z,13.81
2023-05-18T20:22:21.822Z,13.79
2023-05-18T20:24:49.983Z,13.77
2023-05-18T20:27:17.057Z,13.74
2023-05-18T20:29:44.174Z,13.71
2023-05-18T20:35:01.417Z,13.61
2023-05-18T20:37:28.867Z,13.54
2023-05-18T20:39:58.041Z,13.49
2023-05-18T20:42:30.339Z,13.43
2023-05-18T20:44:59.357Z,13.36
2023-05-18T20:47:26.534Z,13.30
2023-05-18T20:49:53.733Z,13.26
2023-05-18T20:52:20.872Z,13.23
2023-05-18T20:54:48.535Z,13.21
2023-05-18T20:57:15.765Z,13.17
2023-05-18T20:59:42.953Z,13.13
2023-05-18T21:02:09.989Z,13.07
2023-05-18T21:04:37.133Z,13.02
2023-05-18T21:07:05.727Z,12.96
2023-05-18T21:09:34.234Z,12.90
2023-05-18T21:12:01.555Z,12.83
2023-05-18T21:14:29.045Z,12.77
2023-05-18T21:16:56.462Z,12.74
2023-05-18T21:19:24.055Z,12.69
2023-05-18T21:21:51.379Z,12.64
2023-05-18T21:24:18.900Z,12.61
2023-05-18T21:26:46.296Z,12.60
2023-05-18T21:29:13.366Z,12.56
2023-05-18T21:31:40.695Z,12.51
2023-05-18T21:34:08.769Z,12.48
2023-05-18T21:36:35.728Z,12.44
2023-05-18T21:39:06.240Z,12.41
2023-05-18T21:41:35.475Z,12.40
2023-05-18T21:44:02.377Z,12.36
2023-05-18T21:46:29.411Z,12.33
2023-05-18T21:48:57.192Z,12.31
2023-05-18T21:51:25.476Z,12.29
2023-05-18T21:53:52.822Z,12.27
2023-05-18T21:56:20.110Z,12.25
2023-05-18T21:58:47.227Z,12.24
2023-05-18T22:01:19.939Z,12.23
2023-05-18T22:03:51.042Z,12.26
2023-05-18T22:06:21.068Z,12.27
2023-05-18T22:08:48.204Z,12.29
2023-05-18T22:11:15.692Z,12.34
2023-05-18T22:13:42.702Z,12.39
2023-05-18T22:16:09.656Z,12.39
2023-05-18T22:18:36.646Z,12.39
2023-05-18T22:21:04.313Z,12.40
2023-05-18T22:23:31.412Z,12.43
2023-05-18T22:25:58.461Z,12.46
2023-05-18T22:28:25.605Z,12.49
2023-05-18T22:30:52.748Z,12.51
2023-05-18T22:33:21.359Z,12.53
2023-05-18T22:35:48.814Z,12.52
2023-05-18T22:38:16.954Z,12.50
2023-05-18T22:40:45.238Z,12.48
2023-05-18T22:43:12.284Z,12.45
2023-05-18T22:45:39.325Z,12.43
2023-05-18T22:48:06.604Z,12.41
2023-05-18T22:50:34.888Z,12.39
2023-05-18T22:53:02.678Z,12.36
2023-05-18T22:55:30.418Z,12.34
2023-05-18T22:57:57.535Z,12.34
2023-05-18T23:00:24.676Z,12.32
2023-05-18T23:02:53.252Z,12.30
2023-05-18T23:05:20.594Z,12.28
2023-05-18T23:07:48.381Z,12.25
2023-05-18T23:10:15.940Z,12.28
2023-05-18T23:12:45.675Z,12.34
2023-05-18T23:15:12.634Z,12.38
2023-05-18T23:17:39.761Z,12.36
2023-05-18T23:20:08.392Z,12.32
2023-05-18T23:22:35.607Z,12.25
2023-05-18T23:25:04.701Z,12.17
2023-05-18T23:27:32.337Z,12.09
2023-05-18T23:29:59.400Z,12.02
2023-05-18T23:32:27.035Z,11.95
2023-05-18T23:34:56.431Z,11.88
2023-05-18T23:37:23.894Z,11.83
2023-05-18T23:39:52.131Z,11.81
2023-05-18T23:42:19.673Z,11.79
2023-05-18T23:44:49.423Z,11.82
2023-05-18T23:47:17.107Z,11.82
2023-05-18T23:49:45.551Z,11.79
2023-05-18T23:52:13.855Z,11.75
2023-05-18T23:54:42.130Z,11.71
2023-05-18T23:57:10.107Z,11.67
2023-05-18T23:59:38.273Z,11.62
